FMEE/RUN METAR and TAF weather

Enter ICAO airport designator
Station Type Date Time Source
FMEE METAR 2021/01/22 07:00 UTC NOAA

FMEE 220700Z AUTO 09008KT 9999 SCT027 OVC036 30/22 Q1014 NOSIG


Station Type Date Time Source
FMEE Decoded METAR 2021/01/22 07:00 UTC NOAA

Saint-Denis / Gillot, Reunion (FMEE) 20-53S 055-31E 25M
Jan 22, 2021 - 02:00 AM EST / 2021.01.22 0700 UTC
Wind: from the E (090 degrees) at 9 MPH (8 KT):0
Visibility: greater than 7 mile(s):0
Sky conditions: overcast
Temperature: 86 F (30 C)
Heat index: 91.8 F (33.2 C):1
Dew Point: 71 F (22 C)
Relative Humidity: 62%
Pressure (altimeter): 29.94 in. Hg (1014 hPa)
ob: FMEE 220700Z AUTO 09008KT 9999 SCT027 OVC036 30/22 Q1014 NOSIG
cycle: 7

Station Type Date Time Source
FMEE TAF 2021/01/22 06:30 UTC NOAA

TAF TAF FMEE 220500Z 2206/2312 08012KT 9999 SCT030 BKN045
BECMG 2215/2217 14010KT
BECMG 2304/2306 03010KT
TEMPO 2308/2312 VRB15G25KT 4500 SHRA SCT015 FEW030CB BKN030

Example: see airport list